sensor_id;sensor_type;location;lat;lon;timestamp;temperature;humidity
50758;DHT22;36732;47.980;11.652;2022-10-04T00:02:34;13.60;58.10
50758;DHT22;36732;47.980;11.652;2022-10-04T00:05:06;13.60;58.00
50758;DHT22;36732;47.980;11.652;2022-10-04T00:07:38;13.50;57.80
50758;DHT22;36732;47.980;11.652;2022-10-04T00:10:21;13.50;57.90
50758;DHT22;36732;47.980;11.652;2022-10-04T00:13:00;13.50;57.40
50758;DHT22;36732;47.980;11.652;2022-10-04T00:15:31;13.50;57.40
50758;DHT22;36732;47.980;11.652;2022-10-04T00:26:06;13.40;57.20
50758;DHT22;36732;47.980;11.652;2022-10-04T00:28:43;13.40;57.90
50758;DHT22;36732;47.980;11.652;2022-10-04T00:31:19;13.40;57.10
50758;DHT22;36732;47.980;11.652;2022-10-04T00:41:41;13.30;56.90
50758;DHT22;36732;47.980;11.652;2022-10-04T00:47:52;13.30;56.90
50758;DHT22;36732;47.980;11.652;2022-10-04T00:50:37;13.30;56.80
50758;DHT22;36732;47.980;11.652;2022-10-04T00:56:25;13.20;56.50
50758;DHT22;36732;47.980;11.652;2022-10-04T01:01:26;13.20;57.10
50758;DHT22;36732;47.980;11.652;2022-10-04T01:03:55;13.20;57.00
50758;DHT22;36732;47.980;11.652;2022-10-04T01:06:22;13.10;57.60
50758;DHT22;36732;47.980;11.652;2022-10-04T01:08:52;13.10;57.00
50758;DHT22;36732;47.980;11.652;2022-10-04T01:11:28;13.10;56.80
50758;DHT22;36732;47.980;11.652;2022-10-04T01:13:56;13.10;56.60
50758;DHT22;36732;47.980;11.652;2022-10-04T01:16:28;13.10;56.80
50758;DHT22;36732;47.980;11.652;2022-10-04T01:21:46;13.00;56.50
50758;DHT22;36732;47.980;11.652;2022-10-04T01:24:32;13.10;56.70
50758;DHT22;36732;47.980;11.652;2022-10-04T01:27:00;13.00;56.40
50758;DHT22;36732;47.980;11.652;2022-10-04T01:29:28;13.00;56.60
50758;DHT22;36732;47.980;11.652;2022-10-04T01:31:56;13.00;56.50
50758;DHT22;36732;47.980;11.652;2022-10-04T01:34:25;13.00;56.40
50758;DHT22;36732;47.980;11.652;2022-10-04T01:36:55;13.00;56.40
50758;DHT22;36732;47.980;11.652;2022-10-04T01:39:24;13.00;56.30
50758;DHT22;36732;47.980;11.652;2022-10-04T01:42:14;12.90;56.30
50758;DHT22;36732;47.980;11.652;2022-10-04T01:45:11;12.90;56.50
50758;DHT22;36732;47.980;11.652;2022-10-04T01:47:52;12.90;55.90
50758;DHT22;36732;47.980;11.652;2022-10-04T01:50:32;12.90;56.00
50758;DHT22;36732;47.980;11.652;2022-10-04T01:53:08;12.90;55.90
50758;DHT22;36732;47.980;11.652;2022-10-04T01:55:52;12.90;56.10
50758;DHT22;36732;47.980;11.652;2022-10-04T01:58:29;12.80;55.80
50758;DHT22;36732;47.980;11.652;2022-10-04T02:01:06;12.80;56.00
50758;DHT22;36732;47.980;11.652;2022-10-04T02:03:42;12.80;56.10
50758;DHT22;36732;47.980;11.652;2022-10-04T02:06:11;12.80;56.10
50758;DHT22;36732;47.980;11.652;2022-10-04T02:08:43;12.80;56.10
50758;DHT22;36732;47.980;11.652;2022-10-04T02:11:16;12.80;56.00
50758;DHT22;36732;47.980;11.652;2022-10-04T02:13:47;12.80;56.00
50758;DHT22;36732;47.980;11.652;2022-10-04T02:16:16;12.70;56.00
50758;DHT22;36732;47.980;11.652;2022-10-04T02:18:43;12.70;55.90
50758;DHT22;36732;47.980;11.652;2022-10-04T02:21:11;12.70;55.90
50758;DHT22;36732;47.980;11.652;2022-10-04T02:23:38;12.70;55.80
50758;DHT22;36732;47.980;11.652;2022-10-04T02:26:06;12.70;55.80
50758;DHT22;36732;47.980;11.652;2022-10-04T02:28:34;12.70;55.80
50758;DHT22;36732;47.980;11.652;2022-10-04T02:31:01;12.60;55.70
50758;DHT22;36732;47.980;11.652;2022-10-04T02:33:48;12.60;55.70
50758;DHT22;36732;47.980;11.652;2022-10-04T02:36:16;12.70;55.60
50758;DHT22;36732;47.980;11.652;2022-10-04T02:41:37;12.60;55.30
50758;DHT22;36732;47.980;11.652;2022-10-04T02:44:20;12.60;55.70
50758;DHT22;36732;47.980;11.652;2022-10-04T02:49:36;12.60;56.00
50758;DHT22;36732;47.980;11.652;2022-10-04T02:52:25;12.60;55.30
50758;DHT22;36732;47.980;11.652;2022-10-04T02:57:33;12.60;55.10
50758;DHT22;36732;47.980;11.652;2022-10-04T03:00:23;12.50;55.20
50758;DHT22;36732;47.980;11.652;2022-10-04T03:03:14;12.50;55.20
50758;DHT22;36732;47.980;11.652;2022-10-04T03:08:54;12.50;55.80
50758;DHT22;36732;47.980;11.652;2022-10-04T03:11:26;12.40;55.10
50758;DHT22;36732;47.980;11.652;2022-10-04T03:13:58;12.40;55.20
50758;DHT22;36732;47.980;11.652;2022-10-04T03:16:24;12.40;55.20
50758;DHT22;36732;47.980;11.652;2022-10-04T03:18:52;12.40;55.30
50758;DHT22;36732;47.980;11.652;2022-10-04T03:21:22;12.40;55.40
50758;DHT22;36732;47.980;11.652;2022-10-04T03:23:50;12.30;55.30
50758;DHT22;36732;47.980;11.652;2022-10-04T03:26:52;12.30;55.40
50758;DHT22;36732;47.980;11.652;2022-10-04T03:29:23;12.30;55.10
50758;DHT22;36732;47.980;11.652;2022-10-04T03:31:51;12.30;55.20
50758;DHT22;36732;47.980;11.652;2022-10-04T03:34:24;12.30;55.20
50758;DHT22;36732;47.980;11.652;2022-10-04T03:36:53;12.30;55.10
50758;DHT22;36732;47.980;11.652;2022-10-04T03:39:32;12.30;55.10
50758;DHT22;36732;47.980;11.652;2022-10-04T03:42:08;12.20;54.80
50758;DHT22;36732;47.980;11.652;2022-10-04T03:44:36;12.20;54.50
50758;DHT22;36732;47.980;11.652;2022-10-04T03:47:11;12.20;55.00
50758;DHT22;36732;47.980;11.652;2022-10-04T03:49:40;12.20;54.60
50758;DHT22;36732;47.980;11.652;2022-10-04T03:52:11;12.20;55.00
50758;DHT22;36732;47.980;11.652;2022-10-04T03:54:44;12.20;55.00
50758;DHT22;36732;47.980;11.652;2022-10-04T03:57:11;12.10;54.90
50758;DHT22;36732;47.980;11.652;2022-10-04T03:59:37;12.10;55.00
50758;DHT22;36732;47.980;11.652;2022-10-04T04:02:37;12.10;54.90
50758;DHT22;36732;47.980;11.652;2022-10-04T04:05:09;12.10;54.80
50758;DHT22;36732;47.980;11.652;2022-10-04T04:08:13;12.10;55.00
50758;DHT22;36732;47.980;11.652;2022-10-04T04:10:54;12.10;54.80
50758;DHT22;36732;47.980;11.652;2022-10-04T04:16:11;12.00;55.10
50758;DHT22;36732;47.980;11.652;2022-10-04T04:18:40;12.00;55.00
50758;DHT22;36732;47.980;11.652;2022-10-04T04:21:08;12.00;54.80
50758;DHT22;36732;47.980;11.652;2022-10-04T04:23:46;12.00;54.80
50758;DHT22;36732;47.980;11.652;2022-10-04T04:29:07;12.00;54.40
50758;DHT22;36732;47.980;11.652;2022-10-04T04:31:44;12.00;54.70
50758;DHT22;36732;47.980;11.652;2022-10-04T04:36:45;11.90;54.40
50758;DHT22;36732;47.980;11.652;2022-10-04T04:39:19;11.90;54.60
50758;DHT22;36732;47.980;11.652;2022-10-04T04:42:31;11.90;54.60
50758;DHT22;36732;47.980;11.652;2022-10-04T04:45:02;11.90;54.40
50758;DHT22;36732;47.980;11.652;2022-10-04T04:47:42;11.90;54.70
50758;DHT22;36732;47.980;11.652;2022-10-04T04:50:33;11.90;54.80
50758;DHT22;36732;47.980;11.652;2022-10-04T04:53:06;11.90;54.40
50758;DHT22;36732;47.980;11.652;2022-10-04T04:55:42;11.80;54.30
50758;DHT22;36732;47.980;11.652;2022-10-04T04:58:16;11.80;54.30
50758;DHT22;36732;47.980;11.652;2022-10-04T05:01:31;11.80;54.30
50758;DHT22;36732;47.980;11.652;2022-10-04T05:03:42;11.80;54.80
50758;DHT22;36732;47.980;11.652;2022-10-04T05:06:38;11.80;54.90
50758;DHT22;36732;47.980;11.652;2022-10-04T05:09:40;11.80;54.30
50758;DHT22;36732;47.980;11.652;2022-10-04T05:12:11;11.80;54.30
50758;DHT22;36732;47.980;11.652;2022-10-04T05:14:44;11.80;54.80
50758;DHT22;36732;47.980;11.652;2022-10-04T05:17:24;11.70;54.60
50758;DHT22;36732;47.980;11.652;2022-10-04T05:19:56;11.70;54.40
50758;DHT22;36732;47.980;11.652;2022-10-04T05:22:23;11.70;54.70
50758;DHT22;36732;47.980;11.652;2022-10-04T05:24:56;11.70;54.90
50758;DHT22;36732;47.980;11.652;2022-10-04T05:27:44;11.70;54.70
50758;DHT22;36732;47.980;11.652;2022-10-04T05:30:18;11.70;54.90
50758;DHT22;36732;47.980;11.652;2022-10-04T05:33:12;11.70;55.10
50758;DHT22;36732;47.980;11.652;2022-10-04T05:42:46;11.70;54.90
50758;DHT22;36732;47.980;11.652;2022-10-04T05:44:53;11.70;55.00
50758;DHT22;36732;47.980;11.652;2022-10-04T05:47:25;11.70;55.10
50758;DHT22;36732;47.980;11.652;2022-10-04T05:49:54;11.70;55.30
50758;DHT22;36732;47.980;11.652;2022-10-04T05:52:37;11.70;55.40
50758;DHT22;36732;47.980;11.652;2022-10-04T05:58:20;11.70;55.70
50758;DHT22;36732;47.980;11.652;2022-10-04T06:01:17;11.70;56.00
50758;DHT22;36732;47.980;11.652;2022-10-04T06:04:45;11.70;56.30
50758;DHT22;36732;47.980;11.652;2022-10-04T06:16:04;11.70;57.60
50758;DHT22;36732;47.980;11.652;2022-10-04T06:22:19;11.80;58.20
50758;DHT22;36732;47.980;11.652;2022-10-04T06:25:04;11.80;58.50
50758;DHT22;36732;47.980;11.652;2022-10-04T06:30:29;11.90;59.50
50758;DHT22;36732;47.980;11.652;2022-10-04T06:33:18;11.90;59.50
50758;DHT22;36732;47.980;11.652;2022-10-04T06:36:15;11.90;59.70
50758;DHT22;36732;47.980;11.652;2022-10-04T06:48:04;12.10;60.60
50758;DHT22;36732;47.980;11.652;2022-10-04T06:51:10;12.20;60.90
50758;DHT22;36732;47.980;11.652;2022-10-04T06:54:19;12.20;60.50
50758;DHT22;36732;47.980;11.652;2022-10-04T06:59:51;12.30;60.90
50758;DHT22;36732;47.980;11.652;2022-10-04T07:02:43;12.30;61.20
50758;DHT22;36732;47.980;11.652;2022-10-04T07:08:46;12.40;61.10
50758;DHT22;36732;47.980;11.652;2022-10-04T07:11:18;12.40;61.40
50758;DHT22;36732;47.980;11.652;2022-10-04T07:22:30;12.50;62.00
50758;DHT22;36732;47.980;11.652;2022-10-04T07:25:11;12.60;62.00
50758;DHT22;36732;47.980;11.652;2022-10-04T07:27:53;12.60;62.10
50758;DHT22;36732;47.980;11.652;2022-10-04T07:31:19;12.60;62.20
50758;DHT22;36732;47.980;11.652;2022-10-04T07:33:57;12.60;62.40
50758;DHT22;36732;47.980;11.652;2022-10-04T07:36:36;12.70;62.30
50758;DHT22;36732;47.980;11.652;2022-10-04T07:39:27;12.70;62.50
50758;DHT22;36732;47.980;11.652;2022-10-04T07:41:57;12.70;62.80
50758;DHT22;36732;47.980;11.652;2022-10-04T07:44:39;12.70;62.50
50758;DHT22;36732;47.980;11.652;2022-10-04T07:47:18;12.70;62.90
50758;DHT22;36732;47.980;11.652;2022-10-04T07:49:46;12.80;63.10
50758;DHT22;36732;47.980;11.652;2022-10-04T07:55:22;12.80;63.10
50758;DHT22;36732;47.980;11.652;2022-10-04T08:01:07;12.90;63.70
50758;DHT22;36732;47.980;11.652;2022-10-04T08:07:06;12.90;63.40
50758;DHT22;36732;47.980;11.652;2022-10-04T08:39:46;13.10;65.10
50758;DHT22;36732;47.980;11.652;2022-10-04T08:45:43;13.20;65.40
50758;DHT22;36732;47.980;11.652;2022-10-04T09:17:52;13.40;66.30
50758;DHT22;36732;47.980;11.652;2022-10-04T09:20:28;13.40;66.50
50758;DHT22;36732;47.980;11.652;2022-10-04T09:26:20;13.40;66.30
50758;DHT22;36732;47.980;11.652;2022-10-04T09:29:07;13.40;66.70
50758;DHT22;36732;47.980;11.652;2022-10-04T09:35:01;13.50;66.40
50758;DHT22;36732;47.980;11.652;2022-10-04T09:59:30;13.70;66.80
50758;DHT22;36732;47.980;11.652;2022-10-04T10:05:21;13.80;67.00
50758;DHT22;36732;47.980;11.652;2022-10-04T10:08:08;13.80;67.00
50758;DHT22;36732;47.980;11.652;2022-10-04T10:10:58;13.80;67.10
50758;DHT22;36732;47.980;11.652;2022-10-04T10:35:30;14.00;67.20
50758;DHT22;36732;47.980;11.652;2022-10-04T10:46:41;14.10;67.00
50758;DHT22;36732;47.980;11.652;2022-10-04T11:11:21;14.20;66.60
50758;DHT22;36732;47.980;11.652;2022-10-04T12:00:16;14.50;67.40
50758;DHT22;36732;47.980;11.652;2022-10-04T12:35:50;14.70;66.40
50758;DHT22;36732;47.980;11.652;2022-10-04T12:38:56;14.70;66.60
50758;DHT22;36732;47.980;11.652;2022-10-04T12:42:05;14.70;66.80
50758;DHT22;36732;47.980;11.652;2022-10-04T12:44:46;14.70;66.90
50758;DHT22;36732;47.980;11.652;2022-10-04T13:04:38;14.90;65.80
50758;DHT22;36732;47.980;11.652;2022-10-04T13:07:31;14.80;65.60
50758;DHT22;36732;47.980;11.652;2022-10-04T13:10:31;14.90;65.70
50758;DHT22;36732;47.980;11.652;2022-10-04T13:16:11;14.90;66.00
50758;DHT22;36732;47.980;11.652;2022-10-04T13:22:14;14.90;66.40
50758;DHT22;36732;47.980;11.652;2022-10-04T13:25:00;15.00;66.70
50758;DHT22;36732;47.980;11.652;2022-10-04T13:27:58;15.00;66.70
50758;DHT22;36732;47.980;11.652;2022-10-04T13:30:49;15.00;66.90
50758;DHT22;36732;47.980;11.652;2022-10-04T13:36:05;15.10;66.90
50758;DHT22;36732;47.980;11.652;2022-10-04T13:47:24;15.10;66.60
50758;DHT22;36732;47.980;11.652;2022-10-04T13:56:49;15.10;67.50
50758;DHT22;36732;47.980;11.652;2022-10-04T13:59:45;15.20;66.90
50758;DHT22;36732;47.980;11.652;2022-10-04T14:08:10;15.20;66.90
50758;DHT22;36732;47.980;11.652;2022-10-04T14:36:20;15.30;67.00
50758;DHT22;36732;47.980;11.652;2022-10-04T14:54:25;15.40;66.60
50758;DHT22;36732;47.980;11.652;2022-10-04T15:04:12;15.50;66.10
50758;DHT22;36732;47.980;11.652;2022-10-04T15:07:18;15.50;66.20
50758;DHT22;36732;47.980;11.652;2022-10-04T15:10:13;15.50;66.10
50758;DHT22;36732;47.980;11.652;2022-10-04T15:13:02;15.50;66.10
50758;DHT22;36732;47.980;11.652;2022-10-04T15:24:19;15.60;66.00
50758;DHT22;36732;47.980;11.652;2022-10-04T15:30:30;15.60;66.00
50758;DHT22;36732;47.980;11.652;2022-10-04T15:35:48;15.60;65.60
50758;DHT22;36732;47.980;11.652;2022-10-04T15:49:15;15.70;65.20
50758;DHT22;36732;47.980;11.652;2022-10-04T16:10:13;15.70;65.40
50758;DHT22;36732;47.980;11.652;2022-10-04T16:33:23;15.70;65.80
50758;DHT22;36732;47.980;11.652;2022-10-04T16:36:05;15.70;65.80
50758;DHT22;36732;47.980;11.652;2022-10-04T16:38:50;15.70;65.80
50758;DHT22;36732;47.980;11.652;2022-10-04T16:41:51;15.70;65.90
50758;DHT22;36732;47.980;11.652;2022-10-04T16:44:50;15.70;65.60
50758;DHT22;36732;47.980;11.652;2022-10-04T16:47:34;15.70;65.60
50758;DHT22;36732;47.980;11.652;2022-10-04T16:50:09;15.70;65.60
50758;DHT22;36732;47.980;11.652;2022-10-04T16:53:14;15.70;65.60
50758;DHT22;36732;47.980;11.652;2022-10-04T16:56:24;15.70;65.60
50758;DHT22;36732;47.980;11.652;2022-10-04T17:07:18;15.70;65.50
50758;DHT22;36732;47.980;11.652;2022-10-04T17:24:31;15.60;64.90
50758;DHT22;36732;47.980;11.652;2022-10-04T17:30:19;15.60;64.80
50758;DHT22;36732;47.980;11.652;2022-10-04T17:35:59;15.50;64.40
50758;DHT22;36732;47.980;11.652;2022-10-04T17:42:28;15.50;64.30
50758;DHT22;36732;47.980;11.652;2022-10-04T17:48:07;15.50;64.10
50758;DHT22;36732;47.980;11.652;2022-10-04T17:59:29;15.40;63.80
50758;DHT22;36732;47.980;11.652;2022-10-04T18:02:10;15.30;63.70
50758;DHT22;36732;47.980;11.652;2022-10-04T18:04:57;15.30;63.50
50758;DHT22;36732;47.980;11.652;2022-10-04T18:07:26;15.30;63.50
50758;DHT22;36732;47.980;11.652;2022-10-04T18:10:00;15.30;63.80
50758;DHT22;36732;47.980;11.652;2022-10-04T18:12:54;15.30;63.30
50758;DHT22;36732;47.980;11.652;2022-10-04T18:15:33;15.30;63.40
50758;DHT22;36732;47.980;11.652;2022-10-04T18:18:20;15.20;63.20
50758;DHT22;36732;47.980;11.652;2022-10-04T18:21:01;15.20;63.70
50758;DHT22;36732;47.980;11.652;2022-10-04T18:23:35;15.20;62.90
50758;DHT22;36732;47.980;11.652;2022-10-04T18:26:13;15.20;62.90
50758;DHT22;36732;47.980;11.652;2022-10-04T18:28:44;15.10;62.60
50758;DHT22;36732;47.980;11.652;2022-10-04T18:34:16;15.10;62.70
50758;DHT22;36732;47.980;11.652;2022-10-04T18:39:42;15.00;62.30
50758;DHT22;36732;47.980;11.652;2022-10-04T18:42:20;15.00;62.30
50758;DHT22;36732;47.980;11.652;2022-10-04T18:45:01;15.00;62.30
50758;DHT22;36732;47.980;11.652;2022-10-04T18:47:39;15.00;62.30
50758;DHT22;36732;47.980;11.652;2022-10-04T18:50:34;15.00;62.20
50758;DHT22;36732;47.980;11.652;2022-10-04T18:56:04;14.90;62.60
50758;DHT22;36732;47.980;11.652;2022-10-04T19:11:11;14.80;61.40
50758;DHT22;36732;47.980;11.652;2022-10-04T19:22:41;14.80;61.50
50758;DHT22;36732;47.980;11.652;2022-10-04T19:25:24;14.70;62.30
50758;DHT22;36732;47.980;11.652;2022-10-04T19:28:03;14.70;61.70
50758;DHT22;36732;47.980;11.652;2022-10-04T19:30:58;14.70;61.90
50758;DHT22;36732;47.980;11.652;2022-10-04T19:41:53;14.70;62.20
50758;DHT22;36732;47.980;11.652;2022-10-04T19:47:28;14.70;61.90
50758;DHT22;36732;47.980;11.652;2022-10-04T19:55:57;14.60;61.40
50758;DHT22;36732;47.980;11.652;2022-10-04T19:58:34;14.60;61.30
50758;DHT22;36732;47.980;11.652;2022-10-04T20:01:19;14.60;61.30
50758;DHT22;36732;47.980;11.652;2022-10-04T20:03:47;14.60;61.20
50758;DHT22;36732;47.980;11.652;2022-10-04T20:06:32;14.60;61.30
50758;DHT22;36732;47.980;11.652;2022-10-04T20:11:51;14.60;61.30
50758;DHT22;36732;47.980;11.652;2022-10-04T20:21:55;14.50;60.90
50758;DHT22;36732;47.980;11.652;2022-10-04T20:34:53;14.50;60.70
50758;DHT22;36732;47.980;11.652;2022-10-04T20:37:19;14.50;60.70
50758;DHT22;36732;47.980;11.652;2022-10-04T20:52:37;14.40;61.10
50758;DHT22;36732;47.980;11.652;2022-10-04T20:55:18;14.40;61.10
50758;DHT22;36732;47.980;11.652;2022-10-04T20:57:56;14.40;61.00
50758;DHT22;36732;47.980;11.652;2022-10-04T21:00:28;14.40;61.00
50758;DHT22;36732;47.980;11.652;2022-10-04T21:03:27;14.40;60.90
50758;DHT22;36732;47.980;11.652;2022-10-04T21:06:00;14.30;60.70
50758;DHT22;36732;47.980;11.652;2022-10-04T21:08:31;14.30;60.60
50758;DHT22;36732;47.980;11.652;2022-10-04T21:11:20;14.30;60.60
50758;DHT22;36732;47.980;11.652;2022-10-04T21:13:50;14.30;60.30
50758;DHT22;36732;47.980;11.652;2022-10-04T21:16:41;14.30;60.20
50758;DHT22;36732;47.980;11.652;2022-10-04T21:22:04;14.30;60.00
50758;DHT22;36732;47.980;11.652;2022-10-04T21:24:51;14.30;60.00
50758;DHT22;36732;47.980;11.652;2022-10-04T21:27:33;14.20;59.90
50758;DHT22;36732;47.980;11.652;2022-10-04T21:30:02;14.20;59.70
50758;DHT22;36732;47.980;11.652;2022-10-04T21:32:37;14.20;59.90
50758;DHT22;36732;47.980;11.652;2022-10-04T21:35:04;14.20;59.90
50758;DHT22;36732;47.980;11.652;2022-10-04T21:37:31;14.20;59.90
50758;DHT22;36732;47.980;11.652;2022-10-04T21:39:57;14.20;59.90
50758;DHT22;36732;47.980;11.652;2022-10-04T21:42:23;14.20;59.80
50758;DHT22;36732;47.980;11.652;2022-10-04T21:44:49;14.10;59.80
50758;DHT22;36732;47.980;11.652;2022-10-04T21:47:15;14.10;59.80
50758;DHT22;36732;47.980;11.652;2022-10-04T21:49:41;14.10;59.70
50758;DHT22;36732;47.980;11.652;2022-10-04T21:52:07;14.10;59.60
50758;DHT22;36732;47.980;11.652;2022-10-04T21:54:33;14.10;59.60
50758;DHT22;36732;47.980;11.652;2022-10-04T21:56:59;14.10;59.60
50758;DHT22;36732;47.980;11.652;2022-10-04T21:59:25;14.00;59.50
50758;DHT22;36732;47.980;11.652;2022-10-04T22:01:51;14.00;59.40
50758;DHT22;36732;47.980;11.652;2022-10-04T22:04:17;14.00;59.20
50758;DHT22;36732;47.980;11.652;2022-10-04T22:06:43;14.00;59.30
50758;DHT22;36732;47.980;11.652;2022-10-04T22:09:09;14.00;59.20
50758;DHT22;36732;47.980;11.652;2022-10-04T22:11:35;14.00;59.20
50758;DHT22;36732;47.980;11.652;2022-10-04T22:14:01;14.00;59.20
50758;DHT22;36732;47.980;11.652;2022-10-04T22:16:27;14.00;59.10
50758;DHT22;36732;47.980;11.652;2022-10-04T22:18:53;14.00;58.90
50758;DHT22;36732;47.980;11.652;2022-10-04T22:21:19;13.90;59.00
50758;DHT22;36732;47.980;11.652;2022-10-04T22:23:45;13.90;59.10
50758;DHT22;36732;47.980;11.652;2022-10-04T22:26:20;13.90;59.10
50758;DHT22;36732;47.980;11.652;2022-10-04T22:28:52;13.90;58.80
50758;DHT22;36732;47.980;11.652;2022-10-04T22:31:24;13.90;58.70
50758;DHT22;36732;47.980;11.652;2022-10-04T22:33:52;13.90;58.70
50758;DHT22;36732;47.980;11.652;2022-10-04T22:36:38;13.90;58.70
50758;DHT22;36732;47.980;11.652;2022-10-04T22:39:14;13.80;58.40
50758;DHT22;36732;47.980;11.652;2022-10-04T22:44:29;13.80;58.60
50758;DHT22;36732;47.980;11.652;2022-10-04T22:47:01;13.80;58.70
50758;DHT22;36732;47.980;11.652;2022-10-04T22:49:30;13.80;58.50
50758;DHT22;36732;47.980;11.652;2022-10-04T22:52:02;13.80;58.40
50758;DHT22;36732;47.980;11.652;2022-10-04T22:54:32;13.80;58.40
50758;DHT22;36732;47.980;11.652;2022-10-04T22:56:59;13.80;58.50
50758;DHT22;36732;47.980;11.652;2022-10-04T22:59:53;13.70;58.50
50758;DHT22;36732;47.980;11.652;2022-10-04T23:02:24;13.70;58.10
50758;DHT22;36732;47.980;11.652;2022-10-04T23:05:08;13.70;58.30
50758;DHT22;36732;47.980;11.652;2022-10-04T23:07:38;13.70;58.20
50758;DHT22;36732;47.980;11.652;2022-10-04T23:10:04;13.70;58.40
50758;DHT22;36732;47.980;11.652;2022-10-04T23:12:30;13.70;58.50
50758;DHT22;36732;47.980;11.652;2022-10-04T23:14:56;13.70;58.50
50758;DHT22;36732;47.980;11.652;2022-10-04T23:22:34;13.60;58.20
50758;DHT22;36732;47.980;11.652;2022-10-04T23:25:00;13.60;58.40
50758;DHT22;36732;47.980;11.652;2022-10-04T23:27:27;13.60;58.40
50758;DHT22;36732;47.980;11.652;2022-10-04T23:30:00;13.60;58.30
50758;DHT22;36732;47.980;11.652;2022-10-04T23:32:28;13.60;58.20
50758;DHT22;36732;47.980;11.652;2022-10-04T23:34:55;13.60;58.50
50758;DHT22;36732;47.980;11.652;2022-10-04T23:37:28;13.60;58.50
50758;DHT22;36732;47.980;11.652;2022-10-04T23:39:55;13.50;58.30
50758;DHT22;36732;47.980;11.652;2022-10-04T23:42:27;13.60;58.50
50758;DHT22;36732;47.980;11.652;2022-10-04T23:44:56;13.50;58.30
50758;DHT22;36732;47.980;11.652;2022-10-04T23:47:26;13.50;58.40
50758;DHT22;36732;47.980;11.652;2022-10-04T23:49:57;13.50;58.60
50758;DHT22;36732;47.980;11.652;2022-10-04T23:52:33;13.50;58.50
50758;DHT22;36732;47.980;11.652;2022-10-04T23:55:01;13.50;58.10
50758;DHT22;36732;47.980;11.652;2022-10-04T23:57:38;13.50;58.30
